DAL3242 KJAX-PAJN
Flight info
| Callsign | DAL3242 |
|---|---|
| Flight time | N/A |
| Altitude | 34000 |
| Route | JETIN2 CAPPS BULZI Q19 LAJUG J45 STL J151 BIL/N0477F360 J136 HLN J34 MWH J90 BLUIT J12 SEA HOODS |
| Aircraft | A339/H-SADE1E2E3GHIJ3J5M1P2RWXY/LB2D1 |
Departure
| Time | N/A |
|---|---|
| Airport | Jacksonville International Airport (KJAX) |
Arrival
| Time | 2026-04-19 05:05 |
|---|---|
| Airport | Juneau International Airport (PAJN) |
| Time | Latitude | Longitude | Altitude | Speed | Heading |
|---|---|---|---|---|---|
| 2026-04-19 04:47 | 57.16556 | -133.75547 | 27928 ft | 451 kts | 315° |
| 2026-04-19 04:47 | 57.18907 | -133.79236 | 27660 ft | 439 kts | 315° |
| 2026-04-19 04:47 | 57.21221 | -133.82874 | 27366 ft | 433 kts | 315° |
| 2026-04-19 04:48 | 57.23522 | -133.86507 | 26773 ft | 432 kts | 315° |
| 2026-04-19 04:48 | 57.25784 | -133.90085 | 26218 ft | 429 kts | 315° |
| 2026-04-19 04:48 | 57.28049 | -133.93668 | 25649 ft | 424 kts | 315° |
| 2026-04-19 04:48 | 57.30266 | -133.97179 | 25100 ft | 420 kts | 315° |
| 2026-04-19 04:49 | 57.32492 | -134.00707 | 24533 ft | 417 kts | 315° |
| 2026-04-19 04:49 | 57.34669 | -134.04160 | 23991 ft | 414 kts | 315° |
| 2026-04-19 04:49 | 57.36862 | -134.07643 | 23287 ft | 413 kts | 315° |
| 2026-04-19 04:49 | 57.39052 | -134.11128 | 22151 ft | 421 kts | 315° |
| 2026-04-19 04:50 | 57.41290 | -134.14697 | 21348 ft | 422 kts | 316° |
| 2026-04-19 04:50 | 57.43486 | -134.18198 | 20856 ft | 414 kts | 315° |
| 2026-04-19 04:50 | 57.45645 | -134.21645 | 20553 ft | 401 kts | 315° |
| 2026-04-19 04:50 | 57.47745 | -134.25007 | 20027 ft | 395 kts | 315° |
| 2026-04-19 04:51 | 57.49788 | -134.28289 | 19510 ft | 388 kts | 315° |
| 2026-04-19 04:51 | 57.51824 | -134.31563 | 18981 ft | 383 kts | 315° |
| 2026-04-19 04:51 | 57.53837 | -134.34803 | 18461 ft | 378 kts | 315° |
| 2026-04-19 04:51 | 57.55807 | -134.37977 | 17917 ft | 373 kts | 315° |
| 2026-04-19 04:52 | 57.57737 | -134.41094 | 17431 ft | 367 kts | 315° |
| 2026-04-19 04:52 | 57.59705 | -134.44283 | 16939 ft | 384 kts | 315° |
| 2026-04-19 04:52 | 57.61772 | -134.47649 | 16386 ft | 400 kts | 315° |
| 2026-04-19 04:52 | 57.63877 | -134.51066 | 15839 ft | 402 kts | 315° |
| 2026-04-19 04:53 | 57.65991 | -134.54491 | 15285 ft | 400 kts | 315° |
| 2026-04-19 04:53 | 57.67932 | -134.57635 | 14773 ft | 393 kts | 315° |
| 2026-04-19 04:53 | 57.70047 | -134.61066 | 14205 ft | 384 kts | 315° |
| 2026-04-19 04:53 | 57.72031 | -134.64299 | 13671 ft | 376 kts | 315° |
| 2026-04-19 04:54 | 57.73967 | -134.67463 | 13128 ft | 368 kts | 315° |
| 2026-04-19 04:54 | 57.75914 | -134.70478 | 12628 ft | 360 kts | 320° |
| 2026-04-19 04:54 | 57.78001 | -134.73024 | 12110 ft | 354 kts | 325° |
| 2026-04-19 04:54 | 57.80114 | -134.75368 | 11620 ft | 347 kts | 326° |
| 2026-04-19 04:55 | 57.82151 | -134.77634 | 11139 ft | 340 kts | 325° |
| 2026-04-19 04:55 | 57.84161 | -134.79933 | 10658 ft | 347 kts | 324° |
| 2026-04-19 04:55 | 57.86296 | -134.82453 | 10471 ft | 365 kts | 324° |
| 2026-04-19 04:55 | 57.88419 | -134.84981 | 10411 ft | 359 kts | 324° |
| 2026-04-19 04:56 | 57.90483 | -134.87445 | 10299 ft | 348 kts | 324° |
| 2026-04-19 04:56 | 57.92492 | -134.89848 | 10154 ft | 332 kts | 324° |
| 2026-04-19 04:56 | 57.94384 | -134.92116 | 9983 ft | 315 kts | 323° |
| 2026-04-19 04:56 | 57.96187 | -134.94283 | 9750 ft | 301 kts | 323° |
| 2026-04-19 04:57 | 57.97931 | -134.96389 | 9223 ft | 298 kts | 323° |
| 2026-04-19 04:57 | 57.99667 | -134.98495 | 8714 ft | 295 kts | 323° |
| 2026-04-19 04:57 | 58.01381 | -135.00573 | 8201 ft | 293 kts | 324° |
| 2026-04-19 04:57 | 58.03088 | -135.02636 | 7669 ft | 290 kts | 324° |
| 2026-04-19 04:58 | 58.04824 | -135.04630 | 7056 ft | 290 kts | 332° |
| 2026-04-19 04:58 | 58.06760 | -135.05524 | 6517 ft | 289 kts | 357° |
| 2026-04-19 04:58 | 58.08752 | -135.04994 | 5962 ft | 286 kts | 16° |
| 2026-04-19 04:58 | 58.10616 | -135.03792 | 5415 ft | 282 kts | 22° |
| 2026-04-19 04:59 | 58.12440 | -135.02483 | 4860 ft | 279 kts | 22° |
| 2026-04-19 04:59 | 58.14257 | -135.01258 | 4298 ft | 276 kts | 20° |
| 2026-04-19 04:59 | 58.16060 | -135.00150 | 3764 ft | 271 kts | 19° |
| 2026-04-19 04:59 | 58.17860 | -134.99117 | 3227 ft | 267 kts | 18° |
| 2026-04-19 05:00 | 58.19630 | -134.98133 | 2632 ft | 257 kts | 18° |
| 2026-04-19 05:00 | 58.21325 | -134.97189 | 1842 ft | 249 kts | 18° |
| 2026-04-19 05:00 | 58.22894 | -134.96316 | 1562 ft | 226 kts | 18° |
| 2026-04-19 05:00 | 58.24376 | -134.95488 | 1075 ft | 219 kts | 18° |
| 2026-04-19 05:01 | 58.25812 | -134.94677 | 631 ft | 215 kts | 18° |
| 2026-04-19 05:01 | 58.27234 | -134.93911 | 686 ft | 199 kts | 14° |
| 2026-04-19 05:01 | 58.28584 | -134.93384 | 1634 ft | 194 kts | 12° |
| 2026-04-19 05:01 | 58.29987 | -134.92874 | 2071 ft | 221 kts | 12° |
| 2026-04-19 05:02 | 58.31633 | -134.92153 | 1849 ft | 260 kts | 18° |
| 2026-04-19 05:02 | 58.33302 | -134.91038 | 1779 ft | 251 kts | 22° |
| 2026-04-19 05:02 | 58.34824 | -134.89574 | 1692 ft | 244 kts | 40° |
| 2026-04-19 05:02 | 58.35865 | -134.87016 | 1694 ft | 248 kts | 67° |
| 2026-04-19 05:03 | 58.36174 | -134.83898 | 1629 ft | 234 kts | 92° |
| 2026-04-19 05:03 | 58.36097 | -134.80892 | 1482 ft | 218 kts | 94° |
| 2026-04-19 05:03 | 58.36012 | -134.78076 | 1034 ft | 212 kts | 94° |
| 2026-04-19 05:03 | 58.35998 | -134.75303 | 734 ft | 198 kts | 86° |
| 2026-04-19 05:04 | 58.36219 | -134.72851 | 599 ft | 183 kts | 77° |
| 2026-04-19 05:04 | 58.36514 | -134.70525 | 519 ft | 189 kts | 79° |
| 2026-04-19 05:04 | 58.36780 | -134.67867 | 784 ft | 218 kts | 81° |
| 2026-04-19 05:04 | 58.36770 | -134.64806 | 776 ft | 247 kts | 105° |
| 2026-04-19 05:05 | 58.36063 | -134.61595 | 280 ft | 265 kts | 113° |
| 2026-04-19 05:05 | 58.35605 | -134.58476 | 47 ft | 227 kts | 102° |
| 2026-04-19 05:05 | 58.35301 | -134.56203 | 38 ft | 103 kts | 105° |
| 2026-04-19 05:05 | 58.35239 | -134.55756 | 37 ft | 17 kts | 104° |
| 2026-04-19 05:06 | 58.35255 | -134.55550 | 36 ft | 3 kts | 42° |
| 2026-04-19 05:06 | 58.35309 | -134.55582 | 38 ft | 12 kts | 321° |
| 2026-04-19 05:06 | 58.35349 | -134.55789 | 38 ft | 19 kts | 285° |
| 2026-04-19 05:06 | 58.35372 | -134.55954 | 38 ft | 19 kts | 284° |
| 2026-04-19 05:07 | 58.35406 | -134.56206 | 38 ft | 20 kts | 284° |
| 2026-04-19 05:07 | 58.35441 | -134.56461 | 38 ft | 20 kts | 284° |
| 2026-04-19 05:07 | 58.35478 | -134.56723 | 38 ft | 21 kts | 284° |
| 2026-04-19 05:07 | 58.35516 | -134.56997 | 38 ft | 21 kts | 285° |
| 2026-04-19 05:08 | 58.35554 | -134.57272 | 39 ft | 22 kts | 285° |
| 2026-04-19 05:08 | 58.35634 | -134.57854 | 39 ft | 23 kts | 284° |
| 2026-04-19 05:08 | 58.35678 | -134.58161 | 39 ft | 24 kts | 285° |
| 2026-04-19 05:09 | 58.35767 | -134.58303 | 39 ft | 13 kts | 356° |
| 2026-04-19 05:09 | 58.35813 | -134.58304 | 39 ft | 4 kts | 360° |
| 2026-04-19 05:09 | 58.35828 | -134.58304 | 39 ft | 1 kts | 360° |
| 2026-04-19 05:21 | 58.35829 | -134.58304 | 39 ft | 0 kts | 360° |
| 2026-04-19 05:21 | 58.35830 | -134.58304 | 39 ft | 0 kts | 360° |